createdAt,value
2023-05-14T00:01:13.002Z,100083.97
2023-05-14T00:03:41.329Z,100072.94
2023-05-14T00:06:09.627Z,100082.44
2023-05-14T00:08:36.994Z,100083.81
2023-05-14T00:11:03.974Z,100084.03
2023-05-14T00:13:30.934Z,100080.91
2023-05-14T00:15:57.968Z,100086.66
2023-05-14T00:18:25.113Z,100092.44
2023-05-14T00:20:54.987Z,100087.44
2023-05-14T00:23:23.106Z,100087.16
2023-05-14T00:25:50.628Z,100090.25
2023-05-14T00:28:17.737Z,100086.28
2023-05-14T00:30:44.984Z,100088.31
2023-05-14T00:33:12.074Z,100090.56
2023-05-14T00:35:39.266Z,100089.28
2023-05-14T00:38:06.329Z,100087.81
2023-05-14T00:40:34.290Z,100092.34
2023-05-14T00:43:01.331Z,100091.88
2023-05-14T00:45:28.449Z,100088.56
2023-05-14T00:47:55.984Z,100086.81
2023-05-14T00:50:23.619Z,100090.91
2023-05-14T00:52:50.976Z,100089.44
2023-05-14T00:55:19.102Z,100099.53
2023-05-14T00:57:47.105Z,100098.91
2023-05-14T01:00:14.466Z,100091.84
2023-05-14T01:02:41.571Z,100092.22
2023-05-14T01:05:09.593Z,100093.59
2023-05-14T01:07:51.819Z,100095.25
2023-05-14T01:10:28.143Z,100104.72
2023-05-14T01:13:21.279Z,100097.84
2023-05-14T01:15:49.602Z,100098.50
2023-05-14T01:18:19.627Z,100101.38
2023-05-14T01:20:49.912Z,100094.72
2023-05-14T01:23:16.955Z,100100.28
2023-05-14T01:25:44.228Z,100093.81
2023-05-14T01:28:31.242Z,100104.94
2023-05-14T01:31:06.993Z,100105.97
2023-05-14T01:33:35.904Z,100101.59
2023-05-14T01:36:03.834Z,100105.97
2023-05-14T01:38:34.158Z,100113.63
2023-05-14T01:41:02.355Z,100107.16
2023-05-14T01:43:30.522Z,100112.31
2023-05-14T01:45:57.539Z,100118.16
2023-05-14T01:48:25.530Z,100117.63
2023-05-14T01:50:52.713Z,100121.78
2023-05-14T01:53:19.820Z,100126.59
2023-05-14T01:55:46.975Z,100123.53
2023-05-14T01:58:14.172Z,100128.84
2023-05-14T02:00:41.208Z,100132.81
2023-05-14T02:03:08.706Z,100134.94
2023-05-14T02:05:35.770Z,100128.81
2023-05-14T02:08:02.901Z,100140.91
2023-05-14T02:10:29.915Z,100145.81
2023-05-14T02:12:56.903Z,100146.72
2023-05-14T02:15:23.969Z,100141.78
2023-05-14T02:17:51.129Z,100142.69
2023-05-14T02:20:18.310Z,100141.91
2023-05-14T02:22:47.267Z,100143.66
2023-05-14T02:25:14.309Z,100149.94
2023-05-14T02:27:41.380Z,100155.44
2023-05-14T02:30:09.332Z,100150.31
2023-05-14T02:32:36.955Z,100153.72
2023-05-14T02:35:04.321Z,100150.88
2023-05-14T02:37:31.338Z,100151.31
2023-05-14T02:39:58.461Z,100159.91
2023-05-14T02:42:25.841Z,100158.34
2023-05-14T02:44:53.062Z,100164.22
2023-05-14T02:47:20.112Z,100170.72
2023-05-14T02:49:47.571Z,100170.16
2023-05-14T02:52:14.557Z,100172.28
2023-05-14T02:54:41.562Z,100169.25
2023-05-14T02:57:08.859Z,100168.50
2023-05-14T02:59:36.518Z,100175.41
2023-05-14T03:02:04.179Z,100166.50
2023-05-14T03:04:31.724Z,100165.59
2023-05-14T03:06:58.794Z,100170.63
2023-05-14T03:09:25.850Z,100173.91
2023-05-14T03:11:52.858Z,100182.66
2023-05-14T03:14:19.749Z,100177.91
2023-05-14T03:16:46.880Z,100180.63
2023-05-14T03:19:13.924Z,100174.22
2023-05-14T03:21:41.033Z,100171.53
2023-05-14T03:24:08.073Z,100170.47
2023-05-14T03:26:35.109Z,100184.63
2023-05-14T03:29:02.865Z,100187.31
2023-05-14T03:31:30.031Z,100183.69
2023-05-14T03:33:57.091Z,100185.44
2023-05-14T03:36:24.056Z,100182.47
2023-05-14T03:38:51.045Z,100180.25
2023-05-14T03:41:20.049Z,100184.41
2023-05-14T03:43:46.965Z,100192.06
2023-05-14T03:46:13.992Z,100194.47
2023-05-14T03:48:41.336Z,100192.91
2023-05-14T03:51:08.390Z,100197.22
2023-05-14T03:53:36.282Z,100193.47
2023-05-14T03:56:03.442Z,100197.91
2023-05-14T03:58:30.426Z,100189.13
2023-05-14T04:00:57.463Z,100196.25
2023-05-14T04:03:25.571Z,100196.03
2023-05-14T04:05:52.756Z,100193.69
2023-05-14T04:08:19.997Z,100203.78
2023-05-14T04:10:47.038Z,100201.94
2023-05-14T04:13:13.986Z,100202.19
2023-05-14T04:15:40.994Z,100200.91
2023-05-14T04:18:08.232Z,100203.13
2023-05-14T04:20:35.538Z,100205.56
2023-05-14T04:23:02.872Z,100198.44
2023-05-14T04:25:30.629Z,100196.81
2023-05-14T04:27:58.729Z,100204.44
2023-05-14T04:30:26.495Z,100200.63
2023-05-14T04:32:53.508Z,100201.13
2023-05-14T04:35:24.717Z,100199.84
2023-05-14T04:37:52.315Z,100201.75
2023-05-14T04:40:19.489Z,100200.13
2023-05-14T04:42:47.662Z,100199.94
2023-05-14T04:45:14.873Z,100209.09
2023-05-14T04:47:42.021Z,100199.78
2023-05-14T04:50:09.956Z,100206.25
2023-05-14T04:52:36.993Z,100205.75
2023-05-14T04:55:04.377Z,100212.75
2023-05-14T04:57:31.455Z,100212.16
2023-05-14T04:59:58.553Z,100209.91
2023-05-14T05:02:25.687Z,100210.03
2023-05-14T05:04:52.794Z,100214.53
2023-05-14T05:07:19.764Z,100208.88
2023-05-14T05:09:46.816Z,100218.91
2023-05-14T05:12:14.014Z,100221.41
2023-05-14T05:14:41.101Z,100212.16
2023-05-14T05:17:08.170Z,100209.91
2023-05-14T05:19:43.282Z,100215.03
2023-05-14T05:22:11.630Z,100214.41
2023-05-14T05:24:38.654Z,100216.50
2023-05-14T05:27:06.213Z,100219.25
2023-05-14T05:29:33.398Z,100215.13
2023-05-14T05:32:00.705Z,100216.94
2023-05-14T05:34:28.120Z,100224.16
2023-05-14T05:36:55.391Z,100216.06
2023-05-14T05:39:22.503Z,100216.53
2023-05-14T05:41:49.509Z,100205.59
2023-05-14T05:44:16.590Z,100200.63
2023-05-14T05:46:43.620Z,100202.78
2023-05-14T05:49:10.791Z,100209.22
2023-05-14T05:51:37.804Z,100207.09
2023-05-14T05:54:04.858Z,100204.72
2023-05-14T05:56:31.938Z,100196.97
2023-05-14T05:58:58.838Z,100197.03
2023-05-14T06:01:26.860Z,100199.13
2023-05-14T06:03:53.818Z,100186.72
2023-05-14T06:06:21.816Z,100192.13
2023-05-14T06:08:48.900Z,100186.22
2023-05-14T06:11:17.137Z,100176.09
2023-05-14T06:13:44.201Z,100192.13
2023-05-14T06:16:11.206Z,100198.88
2023-05-14T06:18:38.429Z,100194.28
2023-05-14T06:21:05.716Z,100199.47
2023-05-14T06:23:32.725Z,100184.94
2023-05-14T06:25:59.881Z,100187.28
2023-05-14T06:28:26.925Z,100184.19
2023-05-14T06:30:54.242Z,100187.72
2023-05-14T06:33:29.639Z,100181.72
2023-05-14T06:36:06.117Z,100184.91
2023-05-14T06:38:33.275Z,100189.03
2023-05-14T06:41:00.247Z,100188.94
2023-05-14T06:43:27.203Z,100186.03
2023-05-14T06:45:54.534Z,100177.53
2023-05-14T06:48:22.491Z,100185.41
2023-05-14T06:50:49.565Z,100175.31
2023-05-14T06:53:17.177Z,100184.66
2023-05-14T06:55:44.304Z,100182.19
2023-05-14T06:58:12.014Z,100178.75
2023-05-14T07:00:40.037Z,100182.53
2023-05-14T07:03:07.193Z,100192.63
2023-05-14T07:05:34.207Z,100194.91
2023-05-14T07:08:01.213Z,100183.66
2023-05-14T07:10:28.260Z,100193.53
2023-05-14T07:12:55.511Z,100194.84
2023-05-14T07:15:22.507Z,100191.00
2023-05-14T07:17:49.591Z,100196.06
2023-05-14T07:20:16.648Z,100196.91
2023-05-14T07:22:43.674Z,100193.66
2023-05-14T07:25:10.658Z,100208.16
2023-05-14T07:27:37.645Z,100209.28
2023-05-14T07:30:04.955Z,100208.75
2023-05-14T07:32:32.439Z,100211.06
2023-05-14T07:34:59.561Z,100203.41
2023-05-14T07:37:26.596Z,100203.38
2023-05-14T07:39:54.000Z,100210.41
2023-05-14T07:42:34.527Z,100214.59
2023-05-14T07:45:04.213Z,100211.28
2023-05-14T07:47:32.462Z,100200.50
2023-05-14T07:49:59.744Z,100204.25
2023-05-14T07:52:26.915Z,100206.72
2023-05-14T07:54:53.967Z,100205.63
2023-05-14T07:57:21.043Z,100220.50
2023-05-14T07:59:49.188Z,100213.78
2023-05-14T08:02:17.094Z,100209.03
2023-05-14T08:04:45.083Z,100212.81
2023-05-14T08:07:12.170Z,100208.28
2023-05-14T08:09:39.184Z,100206.75
2023-05-14T08:12:06.904Z,100213.78
2023-05-14T08:14:34.070Z,100217.47
2023-05-14T08:17:01.221Z,100220.03
2023-05-14T08:19:28.603Z,100222.16
2023-05-14T08:21:55.718Z,100218.09
2023-05-14T08:24:22.683Z,100223.75
2023-05-14T08:26:49.658Z,100216.56
2023-05-14T08:29:16.905Z,100219.63
2023-05-14T08:31:44.293Z,100217.41
2023-05-14T08:34:11.475Z,100212.50
2023-05-14T08:36:39.292Z,100215.34
2023-05-14T08:39:07.867Z,100216.44
2023-05-14T08:41:35.661Z,100207.72
2023-05-14T08:44:11.345Z,100209.19
2023-05-14T08:46:39.322Z,100199.50
2023-05-14T08:49:32.350Z,100208.66
2023-05-14T08:52:00.404Z,100220.63
2023-05-14T08:54:28.963Z,100209.09
2023-05-14T08:56:56.203Z,100206.09
2023-05-14T08:59:23.234Z,100205.91
2023-05-14T09:01:53.670Z,100207.25
2023-05-14T09:04:23.361Z,100213.25
2023-05-14T09:06:53.607Z,100210.41
2023-05-14T09:09:24.252Z,100202.91
2023-05-14T09:11:53.291Z,100205.63
2023-05-14T09:14:21.031Z,100215.09
2023-05-14T09:16:49.915Z,100211.19
2023-05-14T09:19:19.531Z,100209.56
2023-05-14T09:21:48.405Z,100209.69
2023-05-14T09:24:26.525Z,100200.84
2023-05-14T09:26:55.307Z,100205.38
2023-05-14T09:29:24.704Z,100211.38
2023-05-14T09:31:52.451Z,100202.84
2023-05-14T09:34:26.038Z,100204.72
2023-05-14T09:37:03.812Z,100212.50
2023-05-14T09:39:32.517Z,100200.84
2023-05-14T09:41:59.579Z,100206.16
2023-05-14T09:44:26.682Z,100205.53
2023-05-14T09:46:54.607Z,100204.72
2023-05-14T09:49:22.543Z,100204.47
2023-05-14T09:51:50.635Z,100206.00
2023-05-14T09:54:17.772Z,100206.22
2023-05-14T09:56:44.898Z,100192.72
2023-05-14T09:59:12.076Z,100190.78
2023-05-14T10:01:41.882Z,100196.22
2023-05-14T10:04:10.080Z,100200.03
2023-05-14T10:06:38.552Z,100192.28
2023-05-14T10:09:12.598Z,100189.78
2023-05-14T10:11:44.210Z,100194.16
2023-05-14T10:14:25.413Z,100184.84
2023-05-14T10:16:54.031Z,100193.41
2023-05-14T10:19:23.858Z,100188.06
2023-05-14T10:21:57.563Z,100183.53
2023-05-14T10:24:25.902Z,100179.53
2023-05-14T10:26:54.132Z,100191.75
2023-05-14T10:29:34.885Z,100193.78
2023-05-14T10:32:07.203Z,100188.19
2023-05-14T10:34:46.220Z,100190.06
2023-05-14T10:37:18.282Z,100188.28
2023-05-14T10:39:49.882Z,100188.44
2023-05-14T10:42:17.996Z,100189.03
2023-05-14T10:44:51.317Z,100187.47
2023-05-14T10:47:18.925Z,100190.59
2023-05-14T10:49:49.252Z,100190.84
2023-05-14T10:52:21.309Z,100186.75
2023-05-14T10:55:00.048Z,100189.28
2023-05-14T10:57:32.402Z,100180.84
2023-05-14T11:00:01.311Z,100176.75
2023-05-14T11:02:35.171Z,100174.09
2023-05-14T11:05:09.325Z,100172.09
2023-05-14T11:07:39.238Z,100179.56
2023-05-14T11:10:10.270Z,100172.44
2023-05-14T11:12:44.014Z,100185.19
2023-05-14T11:15:16.178Z,100182.09
2023-05-14T11:17:44.766Z,100175.38
2023-05-14T11:20:12.494Z,100183.47
2023-05-14T11:22:41.314Z,100181.22
2023-05-14T11:25:09.836Z,100173.81
2023-05-14T11:27:39.878Z,100179.50
2023-05-14T11:30:19.772Z,100173.56
2023-05-14T11:32:48.213Z,100175.84
2023-05-14T11:35:15.792Z,100170.03
2023-05-14T11:37:44.174Z,100169.06
2023-05-14T11:40:19.035Z,100174.38
2023-05-14T11:42:46.478Z,100177.19
2023-05-14T11:45:26.463Z,100180.03
2023-05-14T11:47:56.963Z,100175.13
2023-05-14T11:50:24.230Z,100175.25
2023-05-14T11:52:51.442Z,100175.47
2023-05-14T11:55:18.527Z,100176.78
2023-05-14T11:57:45.876Z,100174.03
2023-05-14T12:00:16.875Z,100165.78
2023-05-14T12:02:44.201Z,100163.97
2023-05-14T12:05:13.745Z,100164.59
2023-05-14T12:07:41.985Z,100173.13
2023-05-14T12:10:09.277Z,100168.72
2023-05-14T12:12:40.117Z,100168.28
2023-05-14T12:15:14.858Z,100168.88
2023-05-14T12:17:42.286Z,100173.13
2023-05-14T12:20:11.209Z,100172.28
2023-05-14T12:22:38.949Z,100162.59
2023-05-14T12:25:13.488Z,100165.06
2023-05-14T12:27:41.632Z,100166.41
2023-05-14T12:32:41.288Z,100165.13
2023-05-14T12:35:09.442Z,100164.50
2023-05-14T12:37:37.670Z,100167.94
2023-05-14T12:40:09.520Z,100162.72
2023-05-14T12:42:37.535Z,100171.00
2023-05-14T12:45:08.079Z,100165.94
2023-05-14T12:47:40.614Z,100162.38
2023-05-14T12:50:08.236Z,100166.66
2023-05-14T12:55:06.262Z,100176.22
2023-05-14T12:57:35.652Z,100161.44
2023-05-14T13:00:06.855Z,100161.44
2023-05-14T13:02:42.067Z,100169.47
2023-05-14T13:05:11.775Z,100171.59
2023-05-14T13:07:39.259Z,100163.19
2023-05-14T13:10:07.182Z,100162.72
2023-05-14T13:12:34.420Z,100157.75
2023-05-14T13:15:01.623Z,100162.63
2023-05-14T13:17:30.874Z,100160.13
2023-05-14T13:19:57.850Z,100162.97
2023-05-14T13:22:24.875Z,100171.13
2023-05-14T13:24:51.883Z,100166.97
2023-05-14T13:27:18.850Z,100168.13
2023-05-14T13:29:45.931Z,100168.81
2023-05-14T13:32:12.897Z,100159.84
2023-05-14T13:34:39.891Z,100158.75
2023-05-14T13:37:07.568Z,100167.94
2023-05-14T13:39:34.581Z,100167.53
2023-05-14T13:42:01.780Z,100165.69
2023-05-14T13:44:28.786Z,100167.59
2023-05-14T13:46:55.770Z,100165.31
2023-05-14T13:49:22.850Z,100176.03
2023-05-14T13:51:49.827Z,100176.03
2023-05-14T13:54:16.912Z,100175.22
2023-05-14T13:56:44.107Z,100174.59
2023-05-14T13:59:11.573Z,100169.22
2023-05-14T14:01:38.559Z,100177.22
2023-05-14T14:04:05.567Z,100182.53
2023-05-14T14:06:33.408Z,100185.91
2023-05-14T14:09:00.484Z,100182.91
2023-05-14T14:11:28.197Z,100184.41
2023-05-14T14:13:55.193Z,100187.13
2023-05-14T14:16:22.218Z,100187.50
2023-05-14T14:18:49.247Z,100179.81
2023-05-14T14:21:18.555Z,100198.19
2023-05-14T14:23:48.989Z,100186.56
2023-05-14T14:26:16.103Z,100181.59
2023-05-14T14:28:43.170Z,100175.88
2023-05-14T14:31:10.752Z,100179.19
2023-05-14T14:33:37.847Z,100169.03
2023-05-14T14:36:05.780Z,100181.53
2023-05-14T14:38:32.737Z,100176.84
2023-05-14T14:40:59.787Z,100174.97
2023-05-14T14:43:26.761Z,100173.75
2023-05-14T14:45:53.854Z,100182.88
2023-05-14T14:48:27.806Z,100174.97
2023-05-14T14:50:55.982Z,100180.41
2023-05-14T14:53:23.806Z,100184.59
2023-05-14T14:55:51.598Z,100185.94
2023-05-14T14:58:19.920Z,100180.94
2023-05-14T15:00:48.257Z,100186.44
2023-05-14T15:03:15.943Z,100183.38
2023-05-14T15:05:43.186Z,100181.72
2023-05-14T15:08:10.579Z,100181.50
2023-05-14T15:10:41.763Z,100175.25
2023-05-14T15:13:09.256Z,100180.44
2023-05-14T15:15:36.461Z,100179.03
2023-05-14T15:18:04.587Z,100181.16
2023-05-14T15:20:31.949Z,100179.78
2023-05-14T15:22:59.062Z,100177.13
2023-05-14T15:25:26.977Z,100180.03
2023-05-14T15:27:54.097Z,100178.00
2023-05-14T15:30:21.258Z,100170.91
2023-05-14T15:32:48.387Z,100169.25
2023-05-14T15:35:15.758Z,100174.06
2023-05-14T15:37:44.810Z,100178.25
2023-05-14T15:40:14.329Z,100169.13
2023-05-14T15:42:43.736Z,100176.88
2023-05-14T15:45:12.763Z,100171.53
2023-05-14T15:47:40.765Z,100171.22
2023-05-14T15:50:08.597Z,100169.16
2023-05-14T15:52:36.607Z,100160.88
2023-05-14T15:55:05.884Z,100169.41
2023-05-14T15:57:33.265Z,100167.34
2023-05-14T16:00:00.413Z,100175.47
2023-05-14T16:02:30.611Z,100174.25
2023-05-14T16:04:57.825Z,100165.94
2023-05-14T16:07:24.879Z,100165.56
2023-05-14T16:09:52.044Z,100165.59
2023-05-14T16:12:32.974Z,100171.00
2023-05-14T16:15:19.236Z,100160.66
2023-05-14T16:18:08.235Z,100164.41
2023-05-14T16:20:36.481Z,100161.94
2023-05-14T16:23:03.559Z,100174.44
2023-05-14T16:25:31.776Z,100173.59
2023-05-14T16:27:58.820Z,100166.72
2023-05-14T16:30:26.082Z,100165.31
2023-05-14T16:32:53.825Z,100164.47
2023-05-14T16:35:21.262Z,100178.56
2023-05-14T16:37:48.455Z,100169.00
2023-05-14T16:40:16.307Z,100176.28
2023-05-14T16:43:14.702Z,100178.78
2023-05-14T16:45:42.178Z,100188.53
2023-05-14T16:48:09.303Z,100180.19
2023-05-14T16:50:36.609Z,100177.06
2023-05-14T16:53:04.072Z,100181.81
2023-05-14T16:55:31.121Z,100182.81
2023-05-14T16:57:58.208Z,100188.63
2023-05-14T17:00:25.208Z,100191.31
2023-05-14T17:02:54.401Z,100181.50
2023-05-14T17:05:21.739Z,100194.97
2023-05-14T17:07:48.970Z,100189.75
2023-05-14T17:10:16.199Z,100203.38
2023-05-14T17:12:43.707Z,100208.56
2023-05-14T17:15:11.772Z,100207.88
2023-05-14T17:17:39.097Z,100206.78
2023-05-14T17:20:06.537Z,100215.84
2023-05-14T17:22:33.627Z,100211.25
2023-05-14T17:25:00.930Z,100215.56
2023-05-14T17:27:29.658Z,100214.06
2023-05-14T17:29:56.656Z,100218.78
2023-05-14T17:32:23.683Z,100221.63
2023-05-14T17:34:50.696Z,100221.56
2023-05-14T17:37:18.119Z,100217.59
2023-05-14T17:39:45.132Z,100228.31
2023-05-14T17:42:12.123Z,100222.50
2023-05-14T17:44:39.253Z,100225.28
2023-05-14T17:47:07.319Z,100225.00
2023-05-14T17:49:34.672Z,100227.47
2023-05-14T17:52:02.047Z,100234.25
2023-05-14T17:54:29.300Z,100228.63
2023-05-14T17:56:56.710Z,100236.69
2023-05-14T17:59:24.400Z,100231.03
2023-05-14T18:01:51.647Z,100234.13
2023-05-14T18:04:18.717Z,100233.22
2023-05-14T18:08:00.446Z,100242.34
2023-05-14T18:10:29.560Z,100244.75
2023-05-14T18:12:56.918Z,100249.31
2023-05-14T18:16:01.131Z,100237.44
2023-05-14T18:19:22.245Z,100242.38
2023-05-14T18:25:20.034Z,100219.50
2023-05-14T18:28:30.864Z,100227.38
2023-05-14T18:31:14.830Z,100236.09
2023-05-14T18:34:46.667Z,100224.41
2023-05-14T18:37:28.001Z,100222.75
2023-05-14T18:40:45.383Z,100248.31
2023-05-14T18:43:31.248Z,100241.59
2023-05-14T18:46:19.135Z,100251.97
2023-05-14T18:48:56.817Z,100226.66
2023-05-14T18:54:18.495Z,100251.44
2023-05-14T18:56:50.529Z,100234.47
2023-05-14T18:59:17.655Z,100249.47
2023-05-14T19:01:44.924Z,100245.47
2023-05-14T19:04:11.942Z,100252.09
2023-05-14T19:06:40.621Z,100246.88
2023-05-14T19:09:07.790Z,100245.59
2023-05-14T19:11:37.704Z,100251.78
2023-05-14T19:14:07.369Z,100246.13
2023-05-14T19:16:34.655Z,100246.97
2023-05-14T19:19:01.801Z,100254.19
2023-05-14T19:21:28.956Z,100250.38
2023-05-14T19:23:56.121Z,100260.78
2023-05-14T19:26:23.233Z,100258.00
2023-05-14T19:28:50.528Z,100267.88
2023-05-14T19:31:17.768Z,100268.91
2023-05-14T19:33:44.819Z,100260.56
2023-05-14T19:36:11.812Z,100261.38
2023-05-14T19:38:39.798Z,100256.38
2023-05-14T19:41:06.758Z,100260.63
2023-05-14T19:43:33.763Z,100268.06
2023-05-14T19:46:01.597Z,100261.38
2023-05-14T19:48:28.932Z,100265.72
2023-05-14T19:50:56.435Z,100263.78
2023-05-14T19:53:29.709Z,100263.94
2023-05-14T19:56:00.780Z,100265.81
2023-05-14T19:58:28.320Z,100262.47
2023-05-14T20:00:57.413Z,100259.13
2023-05-14T20:03:27.842Z,100263.00
2023-05-14T20:05:55.932Z,100264.19
2023-05-14T20:08:23.033Z,100253.81
2023-05-14T20:10:50.143Z,100262.06
2023-05-14T20:13:17.248Z,100261.25
2023-05-14T20:15:44.327Z,100261.25
2023-05-14T20:18:11.315Z,100266.13
2023-05-14T20:20:39.508Z,100261.97
2023-05-14T20:23:06.657Z,100260.28
2023-05-14T20:25:33.976Z,100258.63
2023-05-14T20:28:01.134Z,100257.13
2023-05-14T20:30:28.467Z,100254.34
2023-05-14T20:32:55.933Z,100259.34
2023-05-14T20:35:23.241Z,100260.38
2023-05-14T20:37:50.458Z,100254.34
2023-05-14T20:40:17.719Z,100255.72
2023-05-14T20:42:44.810Z,100262.75
2023-05-14T20:45:11.913Z,100257.53
2023-05-14T20:47:40.340Z,100258.78
2023-05-14T20:50:07.871Z,100260.44
2023-05-14T20:52:34.940Z,100258.78
2023-05-14T20:55:02.495Z,100263.28
2023-05-14T20:57:30.626Z,100263.16
2023-05-14T20:59:57.630Z,100265.22
2023-05-14T21:02:25.159Z,100271.06
2023-05-14T21:04:52.497Z,100267.91
2023-05-14T21:07:19.540Z,100265.22
2023-05-14T21:09:50.936Z,100262.53
2023-05-14T21:12:19.247Z,100258.00
2023-05-14T21:14:46.466Z,100265.22
2023-05-14T21:17:13.447Z,100259.19
2023-05-14T21:19:40.428Z,100266.56
2023-05-14T21:22:07.488Z,100255.19
2023-05-14T21:24:34.525Z,100256.84
2023-05-14T21:27:01.587Z,100266.75
2023-05-14T21:29:28.572Z,100259.72
2023-05-14T21:31:56.107Z,100252.69
2023-05-14T21:34:23.096Z,100260.91
2023-05-14T21:36:50.415Z,100261.09
2023-05-14T21:39:17.382Z,100263.28
2023-05-14T21:41:44.391Z,100255.06
2023-05-14T21:44:11.271Z,100260.81
2023-05-14T21:46:38.336Z,100260.28
2023-05-14T21:49:05.481Z,100264.69
2023-05-14T21:51:33.247Z,100265.66
2023-05-14T21:54:00.366Z,100258.63
2023-05-14T21:56:27.559Z,100255.28
2023-05-14T21:58:56.221Z,100257.13
2023-05-14T22:01:23.405Z,100260.03
2023-05-14T22:03:50.705Z,100252.97
2023-05-14T22:06:17.679Z,100255.00
2023-05-14T22:08:44.759Z,100252.31
2023-05-14T22:11:11.765Z,100260.38
2023-05-14T22:13:41.043Z,100264.91
2023-05-14T22:16:13.307Z,100264.03
2023-05-14T22:18:41.173Z,100254.34
2023-05-14T22:21:08.394Z,100264.25
2023-05-14T22:23:35.400Z,100255.38
2023-05-14T22:26:02.376Z,100257.38
2023-05-14T22:28:29.375Z,100267.09
2023-05-14T22:30:59.796Z,100262.94
2023-05-14T22:33:27.008Z,100264.75
2023-05-14T22:35:53.990Z,100255.25
2023-05-14T22:38:21.353Z,100254.72
2023-05-14T22:40:48.371Z,100258.63
2023-05-14T22:43:15.540Z,100260.84
2023-05-14T22:45:43.811Z,100264.50
2023-05-14T22:48:10.783Z,100268.88
2023-05-14T22:50:37.798Z,100266.34
2023-05-14T22:53:04.760Z,100267.38
2023-05-14T22:55:31.746Z,100263.19
2023-05-14T22:57:58.923Z,100260.88
2023-05-14T23:00:26.002Z,100264.72
2023-05-14T23:02:53.122Z,100268.59
2023-05-14T23:05:20.189Z,100265.91
2023-05-14T23:07:47.220Z,100268.09
2023-05-14T23:10:14.311Z,100257.22
2023-05-14T23:12:41.266Z,100263.91
2023-05-14T23:15:08.481Z,100260.72
2023-05-14T23:17:35.687Z,100265.25
2023-05-14T23:20:04.863Z,100264.94
2023-05-14T23:22:32.059Z,100274.00
2023-05-14T23:24:59.060Z,100274.00
2023-05-14T23:27:26.118Z,100276.00
2023-05-14T23:29:53.487Z,100286.09
2023-05-14T23:32:20.459Z,100279.22
2023-05-14T23:34:47.507Z,100279.38
2023-05-14T23:37:14.750Z,100277.72
2023-05-14T23:39:41.672Z,100278.75
2023-05-14T23:42:08.586Z,100281.44
2023-05-14T23:44:35.615Z,100280.06
2023-05-14T23:47:02.898Z,100276.56
2023-05-14T23:49:29.996Z,100285.78
2023-05-14T23:51:57.004Z,100286.81
2023-05-14T23:54:24.293Z,100287.81
2023-05-14T23:56:52.615Z,100279.28
2023-05-14T23:59:19.736Z,100275.94
